Flight Track Log - Related Links

Times and Time Zones

All times are in EST time to prevent confusion due to time zone crossing. See the EJA829P flight status page for this flight to view local times or setup timezone preferences in your user account.

Time Position Orientation Groundspeed Altitude Reporting Facility
EST Latitude Longitude Course Direction KTS MPH feet Rate Location/Type
Wed 05:34:59 PM 40.1500 -74.2667 339° North 218 251 4,000  Level New York TRACON
Wed 05:35:53 PM 40.1667 -74.3333 288° West 231 266 4,000  Level New York TRACON
Wed 05:36:53 PM 40.1833 -74.4167 285° West 230 265 4,000  Level New York TRACON
Wed 05:37:53 PM 40.2167 -74.5000 298° West 240 276 4,000  Level New York TRACON
Wed 05:38:53 PM 40.2667 -74.5500 323° Northwest 238 274 4,000  Level New York TRACON
Wed 05:39:00 PM 40.6736 -74.0779 52° Northeast  Level Estimated
Wed 05:39:53 PM 40.3167 -74.5833 333° Northwest 240 276 4,000  Level New York TRACON
Wed 05:40:00 PM 40.7388 -74.1108 339° North  Level FlightAware Approximate
Wed 05:40:53 PM 40.3833 -74.6333 330° Northwest 240 276 3,800  Level New York TRACON
Wed 05:41:47 PM 40.4500 -74.6500 349° North 245 282 3,100 -400 Descending New York TRACON
Wed 05:42:53 PM 40.5000 -74.6167 27° Northeast 268 308 3,000 -48 Descending New York TRACON
Wed 05:43:53 PM 40.5333 -74.5333 62° Northeast 239 275 3,000  Level New York TRACON
Wed 05:44:53 PM 40.5667 -74.4667 57° Northeast 253 291 3,000  Level New York TRACON
Wed 05:45:53 PM 40.6167 -74.4167 37° Northeast 212 244 3,000 -450 Level New York TRACON
Wed 05:46:53 PM 40.6500 -74.3500 57° Northeast 185 213 2,100 -500 Descending New York TRACON
Wed 05:47:53 PM 40.6833 -74.3000 49° Northeast 185 213 2,000 -100 Descending New York TRACON
Wed 05:48:53 PM 40.7167 -74.2500 49° Northeast 186 214 1,900 -238 Descending New York TRACON
Wed 05:49:59 PM 40.7667 -74.2000 37° Northeast 187 215 1,500 -190 Descending New York TRACON
Wed 05:50:59 PM 40.7833 -74.1500 66° East 175 201 1,500 -250 Level New York TRACON
Wed 05:51:59 PM 40.8167 -74.1167 37° Northeast 129 148 1,000 -632 Descending New York TRACON
Wed 05:52:53 PM 40.8333 -74.0833 57° Northeast 123 142 300 -778 Descending New York TRACON

Login

Don't have an account? Register now (free) for customized features, flight alerts, and more!